sensor_id;sensor_type;location;lat;lon;timestamp;P1;durP1;ratioP1;P2;durP2;ratioP2
22679;SDS011;11507;44.858;10.374;2022-08-01T00:00:28;4.30;;;3.20;;
22679;SDS011;11507;44.858;10.374;2022-08-01T00:02:54;5.25;;;3.47;;
22679;SDS011;11507;44.858;10.374;2022-08-01T00:05:20;6.13;;;3.00;;
22679;SDS011;11507;44.858;10.374;2022-08-01T00:07:47;5.80;;;3.20;;
22679;SDS011;11507;44.858;10.374;2022-08-01T00:10:13;5.53;;;3.17;;
22679;SDS011;11507;44.858;10.374;2022-08-01T00:12:41;5.07;;;3.08;;
22679;SDS011;11507;44.858;10.374;2022-08-01T00:15:09;5.43;;;3.15;;
22679;SDS011;11507;44.858;10.374;2022-08-01T00:17:35;4.90;;;2.97;;
22679;SDS011;11507;44.858;10.374;2022-08-01T00:20:02;5.15;;;2.80;;
22679;SDS011;11507;44.858;10.374;2022-08-01T00:22:30;4.45;;;2.40;;
22679;SDS011;11507;44.858;10.374;2022-08-01T00:24:57;4.57;;;2.60;;
22679;SDS011;11507;44.858;10.374;2022-08-01T00:27:24;4.55;;;2.60;;
22679;SDS011;11507;44.858;10.374;2022-08-01T00:29:51;4.13;;;2.45;;
22679;SDS011;11507;44.858;10.374;2022-08-01T00:32:17;4.10;;;2.60;;
22679;SDS011;11507;44.858;10.374;2022-08-01T00:34:43;4.22;;;2.30;;
22679;SDS011;11507;44.858;10.374;2022-08-01T00:37:09;5.25;;;2.15;;
22679;SDS011;11507;44.858;10.374;2022-08-01T00:39:35;4.78;;;2.40;;
22679;SDS011;11507;44.858;10.374;2022-08-01T00:42:07;5.18;;;2.38;;
22679;SDS011;11507;44.858;10.374;2022-08-01T00:44:34;5.03;;;2.20;;
22679;SDS011;11507;44.858;10.374;2022-08-01T00:47:01;4.15;;;2.33;;
22679;SDS011;11507;44.858;10.374;2022-08-01T00:49:28;5.35;;;2.20;;
22679;SDS011;11507;44.858;10.374;2022-08-01T00:51:55;4.93;;;2.42;;
22679;SDS011;11507;44.858;10.374;2022-08-01T00:54:22;5.50;;;2.40;;
22679;SDS011;11507;44.858;10.374;2022-08-01T00:56:50;4.47;;;2.40;;
22679;SDS011;11507;44.858;10.374;2022-08-01T00:59:17;4.13;;;2.20;;
22679;SDS011;11507;44.858;10.374;2022-08-01T01:01:43;5.53;;;2.40;;
22679;SDS011;11507;44.858;10.374;2022-08-01T01:04:09;4.97;;;2.30;;
22679;SDS011;11507;44.858;10.374;2022-08-01T01:15:17;3.25;;;2.17;;
22679;SDS011;11507;44.858;10.374;2022-08-01T01:18:22;4.90;;;2.40;;
22679;SDS011;11507;44.858;10.374;2022-08-01T01:34:36;4.60;;;2.80;;
22679;SDS011;11507;44.858;10.374;2022-08-01T01:37:06;6.28;;;3.35;;
22679;SDS011;11507;44.858;10.374;2022-08-01T01:39:35;5.18;;;3.45;;
22679;SDS011;11507;44.858;10.374;2022-08-01T01:42:04;4.93;;;3.38;;
22679;SDS011;11507;44.858;10.374;2022-08-01T01:44:31;5.13;;;3.67;;
22679;SDS011;11507;44.858;10.374;2022-08-01T01:46:57;7.63;;;3.40;;
22679;SDS011;11507;44.858;10.374;2022-08-01T01:49:26;6.72;;;3.72;;
22679;SDS011;11507;44.858;10.374;2022-08-01T01:51:53;5.10;;;3.28;;
22679;SDS011;11507;44.858;10.374;2022-08-01T01:54:22;6.40;;;4.00;;
22679;SDS011;11507;44.858;10.374;2022-08-01T01:56:51;5.32;;;4.15;;
22679;SDS011;11507;44.858;10.374;2022-08-01T01:59:18;8.68;;;4.10;;
22679;SDS011;11507;44.858;10.374;2022-08-01T02:01:49;6.38;;;3.63;;
22679;SDS011;11507;44.858;10.374;2022-08-01T02:04:17;5.85;;;4.10;;
22679;SDS011;11507;44.858;10.374;2022-08-01T02:06:45;7.10;;;4.10;;
22679;SDS011;11507;44.858;10.374;2022-08-01T02:09:13;6.57;;;4.05;;
22679;SDS011;11507;44.858;10.374;2022-08-01T02:11:42;7.15;;;4.35;;
22679;SDS011;11507;44.858;10.374;2022-08-01T02:14:09;6.57;;;4.75;;
22679;SDS011;11507;44.858;10.374;2022-08-01T02:16:36;6.60;;;4.90;;
22679;SDS011;11507;44.858;10.374;2022-08-01T02:19:05;8.10;;;6.13;;
22679;SDS011;11507;44.858;10.374;2022-08-01T02:27:09;8.30;;;6.68;;
22679;SDS011;11507;44.858;10.374;2022-08-01T02:29:41;9.15;;;6.55;;
22679;SDS011;11507;44.858;10.374;2022-08-01T02:32:20;9.85;;;7.93;;
22679;SDS011;11507;44.858;10.374;2022-08-01T02:34:51;11.15;;;7.78;;
22679;SDS011;11507;44.858;10.374;2022-08-01T02:37:21;9.07;;;7.15;;
22679;SDS011;11507;44.858;10.374;2022-08-01T02:39:51;9.52;;;7.38;;
22679;SDS011;11507;44.858;10.374;2022-08-01T02:42:18;9.20;;;7.18;;
22679;SDS011;11507;44.858;10.374;2022-08-01T02:44:45;8.45;;;6.45;;
22679;SDS011;11507;44.858;10.374;2022-08-01T02:47:13;12.15;;;6.72;;
22679;SDS011;11507;44.858;10.374;2022-08-01T02:49:42;8.48;;;6.50;;
22679;SDS011;11507;44.858;10.374;2022-08-01T02:52:12;7.43;;;6.03;;
22679;SDS011;11507;44.858;10.374;2022-08-01T02:54:40;7.80;;;5.88;;
22679;SDS011;11507;44.858;10.374;2022-08-01T02:57:08;7.07;;;5.55;;
22679;SDS011;11507;44.858;10.374;2022-08-01T02:59:38;8.25;;;5.60;;
22679;SDS011;11507;44.858;10.374;2022-08-01T03:02:06;9.13;;;6.05;;
22679;SDS011;11507;44.858;10.374;2022-08-01T03:04:34;7.93;;;5.50;;
22679;SDS011;11507;44.858;10.374;2022-08-01T03:07:02;6.70;;;5.13;;
22679;SDS011;11507;44.858;10.374;2022-08-01T03:09:32;7.03;;;5.47;;
22679;SDS011;11507;44.858;10.374;2022-08-01T03:12:02;8.52;;;5.07;;
22679;SDS011;11507;44.858;10.374;2022-08-01T03:14:29;8.25;;;5.63;;
22679;SDS011;11507;44.858;10.374;2022-08-01T03:16:58;6.68;;;5.47;;
22679;SDS011;11507;44.858;10.374;2022-08-01T03:19:26;6.65;;;4.90;;
22679;SDS011;11507;44.858;10.374;2022-08-01T03:21:54;6.55;;;4.88;;
22679;SDS011;11507;44.858;10.374;2022-08-01T03:24:23;9.40;;;4.85;;
22679;SDS011;11507;44.858;10.374;2022-08-01T03:26:50;5.97;;;5.30;;
22679;SDS011;11507;44.858;10.374;2022-08-01T03:29:19;5.78;;;4.72;;
22679;SDS011;11507;44.858;10.374;2022-08-01T03:31:49;6.18;;;4.75;;
22679;SDS011;11507;44.858;10.374;2022-08-01T03:34:16;6.28;;;4.78;;
22679;SDS011;11507;44.858;10.374;2022-08-01T03:36:45;8.30;;;4.95;;
22679;SDS011;11507;44.858;10.374;2022-08-01T03:39:16;7.30;;;5.20;;
22679;SDS011;11507;44.858;10.374;2022-08-01T03:41:46;6.65;;;4.65;;
22679;SDS011;11507;44.858;10.374;2022-08-01T03:44:20;8.38;;;4.50;;
22679;SDS011;11507;44.858;10.374;2022-08-01T03:46:56;5.93;;;4.32;;
22679;SDS011;11507;44.858;10.374;2022-08-01T03:49:28;6.90;;;4.40;;
22679;SDS011;11507;44.858;10.374;2022-08-01T03:52:01;6.40;;;4.13;;
22679;SDS011;11507;44.858;10.374;2022-08-01T03:54:30;6.53;;;3.88;;
22679;SDS011;11507;44.858;10.374;2022-08-01T03:56:59;4.95;;;3.55;;
22679;SDS011;11507;44.858;10.374;2022-08-01T03:59:26;5.18;;;3.78;;
22679;SDS011;11507;44.858;10.374;2022-08-01T04:01:54;4.88;;;3.28;;
22679;SDS011;11507;44.858;10.374;2022-08-01T04:04:20;5.63;;;3.55;;
22679;SDS011;11507;44.858;10.374;2022-08-01T04:06:47;6.72;;;3.88;;
22679;SDS011;11507;44.858;10.374;2022-08-01T04:09:16;8.23;;;3.90;;
22679;SDS011;11507;44.858;10.374;2022-08-01T04:11:42;6.28;;;4.38;;
22679;SDS011;11507;44.858;10.374;2022-08-01T04:14:08;5.32;;;4.28;;
22679;SDS011;11507;44.858;10.374;2022-08-01T04:16:34;5.85;;;4.53;;
22679;SDS011;11507;44.858;10.374;2022-08-01T04:19:00;6.18;;;4.63;;
22679;SDS011;11507;44.858;10.374;2022-08-01T04:21:26;6.10;;;4.32;;
22679;SDS011;11507;44.858;10.374;2022-08-01T04:23:53;6.53;;;4.82;;
22679;SDS011;11507;44.858;10.374;2022-08-01T04:26:23;6.28;;;4.80;;
22679;SDS011;11507;44.858;10.374;2022-08-01T04:28:51;6.70;;;4.45;;
22679;SDS011;11507;44.858;10.374;2022-08-01T04:31:19;6.78;;;4.18;;
22679;SDS011;11507;44.858;10.374;2022-08-01T04:33:48;6.57;;;3.92;;
22679;SDS011;11507;44.858;10.374;2022-08-01T04:36:17;7.45;;;4.03;;
22679;SDS011;11507;44.858;10.374;2022-08-01T04:38:49;5.38;;;3.55;;
22679;SDS011;11507;44.858;10.374;2022-08-01T04:41:20;6.78;;;3.60;;
22679;SDS011;11507;44.858;10.374;2022-08-01T04:43:48;4.72;;;3.58;;
22679;SDS011;11507;44.858;10.374;2022-08-01T04:46:16;8.65;;;3.92;;
22679;SDS011;11507;44.858;10.374;2022-08-01T04:48:44;6.05;;;3.58;;
22679;SDS011;11507;44.858;10.374;2022-08-01T04:51:15;5.78;;;3.85;;
22679;SDS011;11507;44.858;10.374;2022-08-01T04:53:43;7.80;;;4.05;;
22679;SDS011;11507;44.858;10.374;2022-08-01T04:56:11;6.10;;;4.40;;
22679;SDS011;11507;44.858;10.374;2022-08-01T04:58:40;5.57;;;4.18;;
22679;SDS011;11507;44.858;10.374;2022-08-01T05:01:07;5.72;;;4.15;;
22679;SDS011;11507;44.858;10.374;2022-08-01T05:03:33;7.35;;;3.97;;
22679;SDS011;11507;44.858;10.374;2022-08-01T05:05:59;6.10;;;4.07;;
22679;SDS011;11507;44.858;10.374;2022-08-01T05:08:25;7.53;;;4.38;;
22679;SDS011;11507;44.858;10.374;2022-08-01T05:10:50;6.82;;;4.72;;
22679;SDS011;11507;44.858;10.374;2022-08-01T05:13:18;7.47;;;4.53;;
22679;SDS011;11507;44.858;10.374;2022-08-01T05:15:44;6.95;;;4.63;;
22679;SDS011;11507;44.858;10.374;2022-08-01T05:18:10;6.28;;;4.40;;
22679;SDS011;11507;44.858;10.374;2022-08-01T05:20:36;7.47;;;4.93;;
22679;SDS011;11507;44.858;10.374;2022-08-01T05:23:02;6.38;;;4.53;;
22679;SDS011;11507;44.858;10.374;2022-08-01T05:25:32;8.45;;;5.20;;
22679;SDS011;11507;44.858;10.374;2022-08-01T05:27:58;9.48;;;5.05;;
22679;SDS011;11507;44.858;10.374;2022-08-01T05:30:24;5.80;;;4.35;;
22679;SDS011;11507;44.858;10.374;2022-08-01T05:32:50;8.23;;;4.60;;
22679;SDS011;11507;44.858;10.374;2022-08-01T05:35:19;5.13;;;4.30;;
22679;SDS011;11507;44.858;10.374;2022-08-01T05:37:46;6.40;;;4.82;;
22679;SDS011;11507;44.858;10.374;2022-08-01T05:40:13;6.25;;;4.53;;
22679;SDS011;11507;44.858;10.374;2022-08-01T05:42:42;6.13;;;4.45;;
22679;SDS011;11507;44.858;10.374;2022-08-01T05:45:08;6.78;;;4.45;;
22679;SDS011;11507;44.858;10.374;2022-08-01T05:47:35;9.02;;;4.45;;
22679;SDS011;11507;44.858;10.374;2022-08-01T05:50:03;6.07;;;4.30;;
22679;SDS011;11507;44.858;10.374;2022-08-01T05:52:29;6.68;;;4.20;;
22679;SDS011;11507;44.858;10.374;2022-08-01T05:54:56;6.25;;;4.65;;
22679;SDS011;11507;44.858;10.374;2022-08-01T05:57:22;8.27;;;4.45;;
22679;SDS011;11507;44.858;10.374;2022-08-01T05:59:48;9.65;;;4.68;;
22679;SDS011;11507;44.858;10.374;2022-08-01T06:02:14;7.07;;;4.78;;
22679;SDS011;11507;44.858;10.374;2022-08-01T06:04:39;7.72;;;4.65;;
22679;SDS011;11507;44.858;10.374;2022-08-01T06:07:05;8.30;;;4.78;;
22679;SDS011;11507;44.858;10.374;2022-08-01T06:09:31;9.23;;;4.88;;
22679;SDS011;11507;44.858;10.374;2022-08-01T06:11:57;8.70;;;4.80;;
22679;SDS011;11507;44.858;10.374;2022-08-01T06:14:23;6.35;;;4.03;;
22679;SDS011;11507;44.858;10.374;2022-08-01T06:16:49;7.50;;;4.03;;
22679;SDS011;11507;44.858;10.374;2022-08-01T06:19:15;5.75;;;4.13;;
22679;SDS011;11507;44.858;10.374;2022-08-01T06:21:40;8.20;;;4.03;;
22679;SDS011;11507;44.858;10.374;2022-08-01T06:24:07;7.63;;;3.47;;
22679;SDS011;11507;44.858;10.374;2022-08-01T06:26:34;4.72;;;3.20;;
22679;SDS011;11507;44.858;10.374;2022-08-01T06:29:01;5.30;;;3.17;;
22679;SDS011;11507;44.858;10.374;2022-08-01T06:31:27;5.90;;;3.38;;
22679;SDS011;11507;44.858;10.374;2022-08-01T06:33:54;5.57;;;3.25;;
22679;SDS011;11507;44.858;10.374;2022-08-01T06:36:22;7.10;;;3.80;;
22679;SDS011;11507;44.858;10.374;2022-08-01T06:38:50;7.75;;;3.45;;
22679;SDS011;11507;44.858;10.374;2022-08-01T06:41:15;5.35;;;3.35;;
22679;SDS011;11507;44.858;10.374;2022-08-01T06:43:41;6.80;;;3.72;;
22679;SDS011;11507;44.858;10.374;2022-08-01T06:46:07;7.28;;;3.28;;
22679;SDS011;11507;44.858;10.374;2022-08-01T06:48:35;7.35;;;3.97;;
22679;SDS011;11507;44.858;10.374;2022-08-01T06:51:04;7.30;;;4.28;;
22679;SDS011;11507;44.858;10.374;2022-08-01T06:53:34;12.80;;;4.05;;
22679;SDS011;11507;44.858;10.374;2022-08-01T06:56:01;7.03;;;3.92;;
22679;SDS011;11507;44.858;10.374;2022-08-01T06:58:29;9.98;;;4.40;;
22679;SDS011;11507;44.858;10.374;2022-08-01T07:00:55;9.80;;;5.25;;
22679;SDS011;11507;44.858;10.374;2022-08-01T07:03:21;9.60;;;5.65;;
22679;SDS011;11507;44.858;10.374;2022-08-01T07:05:46;7.80;;;5.65;;
22679;SDS011;11507;44.858;10.374;2022-08-01T07:08:13;8.07;;;5.68;;
22679;SDS011;11507;44.858;10.374;2022-08-01T07:10:39;8.70;;;5.97;;
22679;SDS011;11507;44.858;10.374;2022-08-01T07:13:05;11.05;;;6.15;;
22679;SDS011;11507;44.858;10.374;2022-08-01T07:15:31;7.28;;;5.18;;
22679;SDS011;11507;44.858;10.374;2022-08-01T07:17:57;10.35;;;6.45;;
22679;SDS011;11507;44.858;10.374;2022-08-01T07:20:26;14.32;;;5.80;;
22679;SDS011;11507;44.858;10.374;2022-08-01T07:22:52;10.88;;;5.82;;
22679;SDS011;11507;44.858;10.374;2022-08-01T07:25:18;14.23;;;7.25;;
22679;SDS011;11507;44.858;10.374;2022-08-01T07:27:44;7.40;;;5.60;;
22679;SDS011;11507;44.858;10.374;2022-08-01T07:30:10;13.10;;;8.38;;
22679;SDS011;11507;44.858;10.374;2022-08-01T07:32:36;11.55;;;8.18;;
22679;SDS011;11507;44.858;10.374;2022-08-01T07:35:02;11.50;;;8.35;;
22679;SDS011;11507;44.858;10.374;2022-08-01T07:37:29;12.38;;;8.20;;
22679;SDS011;11507;44.858;10.374;2022-08-01T07:39:55;10.32;;;7.95;;
22679;SDS011;11507;44.858;10.374;2022-08-01T07:42:21;12.63;;;8.27;;
22679;SDS011;11507;44.858;10.374;2022-08-01T07:44:47;10.88;;;7.13;;
22679;SDS011;11507;44.858;10.374;2022-08-01T07:47:13;10.80;;;8.90;;
22679;SDS011;11507;44.858;10.374;2022-08-01T07:49:40;11.07;;;7.80;;
22679;SDS011;11507;44.858;10.374;2022-08-01T07:52:06;11.52;;;8.02;;
22679;SDS011;11507;44.858;10.374;2022-08-01T07:54:33;12.20;;;8.70;;
22679;SDS011;11507;44.858;10.374;2022-08-01T07:56:59;10.55;;;7.68;;
22679;SDS011;11507;44.858;10.374;2022-08-01T07:59:25;12.05;;;8.38;;
22679;SDS011;11507;44.858;10.374;2022-08-01T08:01:51;14.25;;;8.25;;
22679;SDS011;11507;44.858;10.374;2022-08-01T08:04:17;13.35;;;7.63;;
22679;SDS011;11507;44.858;10.374;2022-08-01T08:06:43;10.10;;;7.43;;
22679;SDS011;11507;44.858;10.374;2022-08-01T08:09:12;13.32;;;7.90;;
22679;SDS011;11507;44.858;10.374;2022-08-01T08:11:38;14.25;;;8.02;;
22679;SDS011;11507;44.858;10.374;2022-08-01T08:14:05;10.98;;;7.60;;
22679;SDS011;11507;44.858;10.374;2022-08-01T08:16:31;10.95;;;8.18;;
22679;SDS011;11507;44.858;10.374;2022-08-01T08:18:57;12.90;;;8.45;;
22679;SDS011;11507;44.858;10.374;2022-08-01T08:21:23;12.57;;;9.35;;
22679;SDS011;11507;44.858;10.374;2022-08-01T08:23:48;11.90;;;8.43;;
22679;SDS011;11507;44.858;10.374;2022-08-01T08:26:34;14.90;;;7.90;;
22679;SDS011;11507;44.858;10.374;2022-08-01T08:29:00;14.93;;;7.45;;
22679;SDS011;11507;44.858;10.374;2022-08-01T08:31:26;11.60;;;6.30;;
22679;SDS011;11507;44.858;10.374;2022-08-01T08:33:52;13.00;;;7.63;;
22679;SDS011;11507;44.858;10.374;2022-08-01T08:36:18;10.57;;;7.43;;
22679;SDS011;11507;44.858;10.374;2022-08-01T08:38:44;8.70;;;6.15;;
22679;SDS011;11507;44.858;10.374;2022-08-01T08:41:09;11.50;;;7.93;;
22679;SDS011;11507;44.858;10.374;2022-08-01T08:43:35;13.32;;;6.97;;
22679;SDS011;11507;44.858;10.374;2022-08-01T08:46:01;9.93;;;7.85;;
22679;SDS011;11507;44.858;10.374;2022-08-01T08:48:28;12.20;;;7.97;;
22679;SDS011;11507;44.858;10.374;2022-08-01T08:50:55;9.68;;;6.57;;
22679;SDS011;11507;44.858;10.374;2022-08-01T08:53:23;10.13;;;6.47;;
22679;SDS011;11507;44.858;10.374;2022-08-01T08:55:51;9.02;;;6.68;;
22679;SDS011;11507;44.858;10.374;2022-08-01T08:58:19;8.48;;;5.32;;
22679;SDS011;11507;44.858;10.374;2022-08-01T09:00:46;11.45;;;7.53;;
22679;SDS011;11507;44.858;10.374;2022-08-01T09:03:12;13.02;;;5.80;;
22679;SDS011;11507;44.858;10.374;2022-08-01T09:05:39;8.75;;;5.47;;
22679;SDS011;11507;44.858;10.374;2022-08-01T09:08:08;10.68;;;6.60;;
22679;SDS011;11507;44.858;10.374;2022-08-01T09:10:33;9.32;;;5.90;;
22679;SDS011;11507;44.858;10.374;2022-08-01T09:13:10;8.48;;;5.63;;
22679;SDS011;11507;44.858;10.374;2022-08-01T09:15:42;8.85;;;4.43;;
22679;SDS011;11507;44.858;10.374;2022-08-01T09:21:28;6.78;;;4.63;;
22679;SDS011;11507;44.858;10.374;2022-08-01T09:23:50;9.90;;;5.70;;
22679;SDS011;11507;44.858;10.374;2022-08-01T09:26:20;6.28;;;4.80;;
22679;SDS011;11507;44.858;10.374;2022-08-01T09:28:57;8.23;;;4.47;;
22679;SDS011;11507;44.858;10.374;2022-08-01T09:31:25;9.15;;;6.70;;
22679;SDS011;11507;44.858;10.374;2022-08-01T09:33:56;7.85;;;5.30;;
22679;SDS011;11507;44.858;10.374;2022-08-01T09:36:26;8.80;;;4.68;;
22679;SDS011;11507;44.858;10.374;2022-08-01T09:39:12;6.72;;;4.90;;
22679;SDS011;11507;44.858;10.374;2022-08-01T09:41:39;7.65;;;5.50;;
22679;SDS011;11507;44.858;10.374;2022-08-01T09:44:07;6.97;;;4.90;;
22679;SDS011;11507;44.858;10.374;2022-08-01T09:46:33;11.02;;;4.57;;
22679;SDS011;11507;44.858;10.374;2022-08-01T09:49:05;7.22;;;5.38;;
22679;SDS011;11507;44.858;10.374;2022-08-01T09:51:33;6.68;;;4.30;;
22679;SDS011;11507;44.858;10.374;2022-08-01T09:54:02;8.40;;;5.20;;
22679;SDS011;11507;44.858;10.374;2022-08-01T09:56:38;7.70;;;5.65;;
22679;SDS011;11507;44.858;10.374;2022-08-01T09:59:05;5.93;;;4.20;;
22679;SDS011;11507;44.858;10.374;2022-08-01T10:01:45;6.88;;;4.47;;
22679;SDS011;11507;44.858;10.374;2022-08-01T10:04:14;6.45;;;4.43;;
22679;SDS011;11507;44.858;10.374;2022-08-01T10:06:42;6.40;;;4.45;;
22679;SDS011;11507;44.858;10.374;2022-08-01T10:09:10;7.25;;;3.90;;
22679;SDS011;11507;44.858;10.374;2022-08-01T10:11:38;5.88;;;4.05;;
22679;SDS011;11507;44.858;10.374;2022-08-01T10:14:07;5.88;;;3.65;;
22679;SDS011;11507;44.858;10.374;2022-08-01T10:16:33;6.88;;;3.33;;
22679;SDS011;11507;44.858;10.374;2022-08-01T10:19:01;4.60;;;3.33;;
22679;SDS011;11507;44.858;10.374;2022-08-01T10:21:32;5.95;;;3.15;;
22679;SDS011;11507;44.858;10.374;2022-08-01T10:23:59;5.15;;;2.92;;
22679;SDS011;11507;44.858;10.374;2022-08-01T10:26:27;5.70;;;2.90;;
22679;SDS011;11507;44.858;10.374;2022-08-01T10:28:57;4.80;;;2.67;;
22679;SDS011;11507;44.858;10.374;2022-08-01T10:31:23;5.63;;;2.97;;
22679;SDS011;11507;44.858;10.374;2022-08-01T10:33:50;6.70;;;2.90;;
22679;SDS011;11507;44.858;10.374;2022-08-01T10:36:17;5.93;;;3.10;;
22679;SDS011;11507;44.858;10.374;2022-08-01T10:38:45;3.83;;;2.65;;
22679;SDS011;11507;44.858;10.374;2022-08-01T10:41:12;4.38;;;2.78;;
22679;SDS011;11507;44.858;10.374;2022-08-01T10:43:42;4.63;;;2.60;;
22679;SDS011;11507;44.858;10.374;2022-08-01T10:46:10;5.38;;;2.45;;
22679;SDS011;11507;44.858;10.374;2022-08-01T10:51:12;4.18;;;2.65;;
22679;SDS011;11507;44.858;10.374;2022-08-01T10:53:48;5.35;;;2.70;;
22679;SDS011;11507;44.858;10.374;2022-08-01T10:56:16;6.15;;;2.55;;
22679;SDS011;11507;44.858;10.374;2022-08-01T10:58:43;5.72;;;2.50;;
22679;SDS011;11507;44.858;10.374;2022-08-01T11:01:14;5.07;;;2.47;;
22679;SDS011;11507;44.858;10.374;2022-08-01T11:03:40;4.85;;;2.60;;
22679;SDS011;11507;44.858;10.374;2022-08-01T11:06:15;4.70;;;2.30;;
22679;SDS011;11507;44.858;10.374;2022-08-01T11:08:43;4.80;;;2.17;;
22679;SDS011;11507;44.858;10.374;2022-08-01T11:11:16;3.05;;;2.08;;
22679;SDS011;11507;44.858;10.374;2022-08-01T11:14:25;4.30;;;2.35;;
22679;SDS011;11507;44.858;10.374;2022-08-01T11:16:35;3.65;;;2.20;;
22679;SDS011;11507;44.858;10.374;2022-08-01T11:19:03;3.85;;;2.30;;
22679;SDS011;11507;44.858;10.374;2022-08-01T11:27:29;3.30;;;2.35;;
22679;SDS011;11507;44.858;10.374;2022-08-01T11:32:49;4.05;;;2.63;;
22679;SDS011;11507;44.858;10.374;2022-08-01T11:35:19;4.13;;;2.70;;
22679;SDS011;11507;44.858;10.374;2022-08-01T11:37:48;4.00;;;2.60;;
22679;SDS011;11507;44.858;10.374;2022-08-01T11:40:21;3.20;;;2.42;;
22679;SDS011;11507;44.858;10.374;2022-08-01T11:46:12;3.70;;;2.70;;
22679;SDS011;11507;44.858;10.374;2022-08-01T11:48:31;4.22;;;2.60;;
22679;SDS011;11507;44.858;10.374;2022-08-01T11:50:57;4.13;;;2.20;;
22679;SDS011;11507;44.858;10.374;2022-08-01T11:53:23;6.63;;;2.63;;
22679;SDS011;11507;44.858;10.374;2022-08-01T11:55:50;5.07;;;2.60;;
22679;SDS011;11507;44.858;10.374;2022-08-01T11:58:29;3.70;;;2.70;;
22679;SDS011;11507;44.858;10.374;2022-08-01T12:00:56;6.00;;;2.53;;
22679;SDS011;11507;44.858;10.374;2022-08-01T12:03:24;3.83;;;2.40;;
22679;SDS011;11507;44.858;10.374;2022-08-01T12:05:53;3.58;;;2.40;;
22679;SDS011;11507;44.858;10.374;2022-08-01T12:08:32;4.85;;;2.78;;
22679;SDS011;11507;44.858;10.374;2022-08-01T12:11:08;4.45;;;2.50;;
22679;SDS011;11507;44.858;10.374;2022-08-01T12:13:41;4.53;;;2.42;;
22679;SDS011;11507;44.858;10.374;2022-08-01T12:16:08;4.60;;;2.30;;
22679;SDS011;11507;44.858;10.374;2022-08-01T12:18:44;5.72;;;2.70;;
22679;SDS011;11507;44.858;10.374;2022-08-01T12:21:10;2.80;;;2.05;;
22679;SDS011;11507;44.858;10.374;2022-08-01T12:23:36;4.07;;;2.28;;
22679;SDS011;11507;44.858;10.374;2022-08-01T12:26:06;4.38;;;2.22;;
22679;SDS011;11507;44.858;10.374;2022-08-01T12:28:38;5.30;;;2.60;;
22679;SDS011;11507;44.858;10.374;2022-08-01T12:31:05;3.42;;;2.40;;
22679;SDS011;11507;44.858;10.374;2022-08-01T12:33:31;3.25;;;2.45;;
22679;SDS011;11507;44.858;10.374;2022-08-01T12:35:58;3.10;;;2.47;;
22679;SDS011;11507;44.858;10.374;2022-08-01T12:38:24;3.20;;;2.28;;
22679;SDS011;11507;44.858;10.374;2022-08-01T12:40:53;4.13;;;2.30;;
22679;SDS011;11507;44.858;10.374;2022-08-01T12:43:21;5.53;;;2.50;;
22679;SDS011;11507;44.858;10.374;2022-08-01T12:45:49;3.65;;;2.22;;
22679;SDS011;11507;44.858;10.374;2022-08-01T12:48:20;4.55;;;2.50;;
22679;SDS011;11507;44.858;10.374;2022-08-01T12:50:49;4.65;;;2.42;;
22679;SDS011;11507;44.858;10.374;2022-08-01T12:53:17;4.43;;;2.40;;
22679;SDS011;11507;44.858;10.374;2022-08-01T12:55:44;4.70;;;2.20;;
22679;SDS011;11507;44.858;10.374;2022-08-01T12:58:13;3.92;;;2.33;;
22679;SDS011;11507;44.858;10.374;2022-08-01T13:00:44;3.58;;;2.25;;
22679;SDS011;11507;44.858;10.374;2022-08-01T13:03:18;4.28;;;2.30;;
22679;SDS011;11507;44.858;10.374;2022-08-01T13:05:52;5.22;;;2.42;;
22679;SDS011;11507;44.858;10.374;2022-08-01T13:10:47;4.55;;;2.30;;
22679;SDS011;11507;44.858;10.374;2022-08-01T13:13:16;3.47;;;2.50;;
22679;SDS011;11507;44.858;10.374;2022-08-01T13:15:43;3.72;;;2.20;;
22679;SDS011;11507;44.858;10.374;2022-08-01T13:18:26;3.85;;;2.65;;
22679;SDS011;11507;44.858;10.374;2022-08-01T13:21:16;3.60;;;2.40;;
22679;SDS011;11507;44.858;10.374;2022-08-01T13:26:43;3.28;;;2.05;;
22679;SDS011;11507;44.858;10.374;2022-08-01T13:29:11;3.25;;;1.95;;
22679;SDS011;11507;44.858;10.374;2022-08-01T13:31:39;3.13;;;2.10;;
22679;SDS011;11507;44.858;10.374;2022-08-01T13:34:06;5.32;;;1.90;;
22679;SDS011;11507;44.858;10.374;2022-08-01T13:36:34;3.22;;;2.22;;
22679;SDS011;11507;44.858;10.374;2022-08-01T13:39:01;3.83;;;1.95;;
22679;SDS011;11507;44.858;10.374;2022-08-01T13:41:47;3.58;;;2.25;;
22679;SDS011;11507;44.858;10.374;2022-08-01T13:44:13;3.70;;;1.92;;
22679;SDS011;11507;44.858;10.374;2022-08-01T13:46:39;3.95;;;2.03;;
22679;SDS011;11507;44.858;10.374;2022-08-01T13:49:08;3.00;;;2.20;;
22679;SDS011;11507;44.858;10.374;2022-08-01T13:51:37;5.07;;;2.10;;
22679;SDS011;11507;44.858;10.374;2022-08-01T13:54:05;4.13;;;2.10;;
22679;SDS011;11507;44.858;10.374;2022-08-01T13:56:31;5.13;;;2.20;;
22679;SDS011;11507;44.858;10.374;2022-08-01T13:58:58;3.30;;;2.33;;
22679;SDS011;11507;44.858;10.374;2022-08-01T14:01:24;3.45;;;2.35;;
22679;SDS011;11507;44.858;10.374;2022-08-01T14:03:51;4.20;;;2.10;;
22679;SDS011;11507;44.858;10.374;2022-08-01T14:06:18;3.13;;;2.00;;
22679;SDS011;11507;44.858;10.374;2022-08-01T14:08:46;4.85;;;2.10;;
22679;SDS011;11507;44.858;10.374;2022-08-01T14:11:12;4.57;;;2.28;;
22679;SDS011;11507;44.858;10.374;2022-08-01T14:13:40;3.35;;;2.30;;
22679;SDS011;11507;44.858;10.374;2022-08-01T14:16:06;4.07;;;2.22;;
22679;SDS011;11507;44.858;10.374;2022-08-01T14:18:33;3.65;;;2.30;;
22679;SDS011;11507;44.858;10.374;2022-08-01T14:20:58;3.60;;;2.15;;
22679;SDS011;11507;44.858;10.374;2022-08-01T14:23:25;6.00;;;2.20;;
22679;SDS011;11507;44.858;10.374;2022-08-01T14:25:51;3.78;;;2.03;;
22679;SDS011;11507;44.858;10.374;2022-08-01T14:28:17;3.90;;;1.80;;
22679;SDS011;11507;44.858;10.374;2022-08-01T14:30:44;3.28;;;1.95;;
22679;SDS011;11507;44.858;10.374;2022-08-01T14:33:10;3.00;;;2.28;;
22679;SDS011;11507;44.858;10.374;2022-08-01T14:35:37;2.70;;;2.00;;
22679;SDS011;11507;44.858;10.374;2022-08-01T14:38:03;9.43;;;2.10;;
22679;SDS011;11507;44.858;10.374;2022-08-01T14:40:30;6.03;;;2.10;;
22679;SDS011;11507;44.858;10.374;2022-08-01T14:42:56;4.20;;;1.95;;
22679;SDS011;11507;44.858;10.374;2022-08-01T14:45:22;3.97;;;2.10;;
22679;SDS011;11507;44.858;10.374;2022-08-01T14:47:48;3.78;;;2.20;;
22679;SDS011;11507;44.858;10.374;2022-08-01T14:50:14;3.13;;;1.70;;
22679;SDS011;11507;44.858;10.374;2022-08-01T14:52:41;4.60;;;2.30;;
22679;SDS011;11507;44.858;10.374;2022-08-01T14:55:09;4.30;;;2.05;;
22679;SDS011;11507;44.858;10.374;2022-08-01T14:57:37;3.78;;;1.85;;
22679;SDS011;11507;44.858;10.374;2022-08-01T15:00:04;2.35;;;1.70;;
22679;SDS011;11507;44.858;10.374;2022-08-01T15:02:32;4.63;;;1.80;;
22679;SDS011;11507;44.858;10.374;2022-08-01T15:05:00;13.07;;;2.17;;
22679;SDS011;11507;44.858;10.374;2022-08-01T15:07:27;4.10;;;2.20;;
22679;SDS011;11507;44.858;10.374;2022-08-01T15:09:53;6.40;;;1.80;;
22679;SDS011;11507;44.858;10.374;2022-08-01T15:12:19;3.92;;;2.10;;
22679;SDS011;11507;44.858;10.374;2022-08-01T15:14:45;4.65;;;2.00;;
22679;SDS011;11507;44.858;10.374;2022-08-01T15:17:15;3.20;;;1.67;;
22679;SDS011;11507;44.858;10.374;2022-08-01T15:19:52;3.15;;;1.90;;
22679;SDS011;11507;44.858;10.374;2022-08-01T15:22:20;3.50;;;2.00;;
22679;SDS011;11507;44.858;10.374;2022-08-01T15:24:47;2.65;;;1.92;;
22679;SDS011;11507;44.858;10.374;2022-08-01T15:27:14;3.03;;;1.67;;
22679;SDS011;11507;44.858;10.374;2022-08-01T15:29:40;3.70;;;2.00;;